createdAt,value
2022-11-10T00:03:36.673Z,101702.56
2022-11-10T00:08:58.353Z,101713.91
2022-11-10T00:14:38.861Z,101718.56
2022-11-10T00:20:00.963Z,101720.97
2022-11-10T00:25:23.421Z,101714.59
2022-11-10T00:30:46.929Z,101728.66
2022-11-10T00:36:09.179Z,101733.59
2022-11-10T00:41:30.899Z,101739.38
2022-11-10T00:46:52.561Z,101732.38
2022-11-10T00:52:14.277Z,101737.28
2022-11-10T00:57:35.915Z,101748.38
2022-11-10T01:02:57.661Z,101751.38
2022-11-10T01:08:19.329Z,101748.00
2022-11-10T01:13:41.723Z,101753.75
2022-11-10T01:19:05.144Z,101754.81
2022-11-10T01:24:27.495Z,101762.53
2022-11-10T01:29:49.157Z,101772.78
2022-11-10T01:35:10.878Z,101782.16
2022-11-10T01:40:32.612Z,101793.47
2022-11-10T01:46:01.238Z,101789.84
2022-11-10T01:51:41.510Z,101782.59
2022-11-10T01:57:07.124Z,101787.75
2022-11-10T02:02:37.627Z,101789.31
2022-11-10T02:08:00.570Z,101785.44
2022-11-10T02:13:22.668Z,101788.19
2022-11-10T02:18:44.701Z,101781.00
2022-11-10T02:24:06.478Z,101795.91
2022-11-10T02:29:28.137Z,101802.53
2022-11-10T02:34:49.870Z,101797.19
2022-11-10T02:40:11.913Z,101806.59
2022-11-10T02:45:33.692Z,101802.75
2022-11-10T02:50:55.337Z,101816.84
2022-11-10T02:56:17.229Z,101820.69
2022-11-10T03:01:39.241Z,101835.59
2022-11-10T03:07:01.015Z,101832.84
2022-11-10T03:12:22.774Z,101848.84
2022-11-10T03:17:44.433Z,101857.16
2022-11-10T03:23:06.203Z,101858.22
2022-11-10T03:28:27.869Z,101874.25
2022-11-10T03:33:49.578Z,101875.31
2022-11-10T03:39:11.219Z,101896.63
2022-11-10T03:44:32.887Z,101898.56
2022-11-10T03:49:54.523Z,101911.53
2022-11-10T03:55:18.858Z,101929.03
2022-11-10T04:00:40.551Z,101919.22
2022-11-10T04:06:20.604Z,101937.78
2022-11-10T04:12:00.686Z,101931.59
2022-11-10T04:17:22.315Z,101932.69
2022-11-10T04:23:02.265Z,101942.94
2022-11-10T04:28:23.960Z,101954.22
2022-11-10T04:33:46.267Z,101952.31
2022-11-10T04:39:08.905Z,101962.53
2022-11-10T04:44:30.574Z,101965.28
2022-11-10T04:49:52.208Z,101980.22
2022-11-10T04:55:13.970Z,101989.63
2022-11-10T05:00:36.815Z,101996.22
2022-11-10T05:05:58.553Z,101991.75
2022-11-10T05:11:20.287Z,101978.97
2022-11-10T05:16:41.970Z,101988.34
2022-11-10T05:22:03.731Z,101996.03
2022-11-10T05:27:25.404Z,102017.13
2022-11-10T05:32:47.077Z,102019.22
2022-11-10T05:38:08.737Z,102023.06
2022-11-10T05:43:30.430Z,102020.28
2022-11-10T05:48:52.285Z,102019.47
2022-11-10T05:54:13.921Z,102014.13
2022-11-10T05:59:35.580Z,102023.50
2022-11-10T06:04:57.237Z,102040.13
2022-11-10T06:10:19.435Z,102041.81
2022-11-10T06:15:42.969Z,102052.91
2022-11-10T06:21:08.279Z,102049.28
2022-11-10T06:26:30.027Z,102068.47
2022-11-10T06:31:51.680Z,102075.94
2022-11-10T06:37:13.365Z,102080.59
2022-11-10T06:42:36.030Z,102089.78
2022-11-10T06:48:15.682Z,102110.88
2022-11-10T06:53:37.340Z,102112.16
2022-11-10T06:58:59.065Z,102122.38
2022-11-10T07:04:21.170Z,102126.03
2022-11-10T07:09:43.011Z,102136.69
2022-11-10T07:15:05.746Z,102143.06
2022-11-10T07:20:28.627Z,102145.94
2022-11-10T07:25:50.442Z,102139.03
2022-11-10T07:31:12.129Z,102154.31
2022-11-10T07:36:33.918Z,102179.72
2022-11-10T07:41:55.684Z,102187.38
2022-11-10T07:47:17.325Z,102184.72
2022-11-10T07:52:39.143Z,102196.16
2022-11-10T07:58:01.032Z,102193.56
2022-11-10T08:03:23.120Z,102199.06
2022-11-10T08:08:47.957Z,102198.06
2022-11-10T08:14:09.623Z,102204.50
2022-11-10T08:19:31.355Z,102219.09
2022-11-10T08:24:53.024Z,102235.56
2022-11-10T08:30:14.956Z,102244.28
2022-11-10T08:35:39.682Z,102232.00
2022-11-10T08:41:01.319Z,102223.53
2022-11-10T08:46:22.953Z,102245.50
2022-11-10T08:51:44.608Z,102260.69
2022-11-10T08:57:06.330Z,102265.41
2022-11-10T09:02:28.063Z,102264.56
2022-11-10T09:07:51.247Z,102275.22
2022-11-10T09:13:15.158Z,102282.47
2022-11-10T09:18:36.830Z,102295.69
2022-11-10T09:23:58.577Z,102301.03
2022-11-10T09:29:20.432Z,102308.91
2022-11-10T09:34:44.168Z,102304.66
2022-11-10T09:40:17.780Z,102306.78
2022-11-10T09:45:44.007Z,102294.41
2022-11-10T09:51:19.773Z,102292.72
2022-11-10T09:56:41.873Z,102288.66
2022-11-10T10:02:40.349Z,102296.13
2022-11-10T10:08:06.751Z,102295.69
2022-11-10T10:13:37.278Z,102291.84
2022-11-10T10:19:17.430Z,102295.69
2022-11-10T10:24:39.973Z,102314.44
2022-11-10T10:30:06.224Z,102308.06
2022-11-10T10:35:28.636Z,102316.59
2022-11-10T10:40:52.873Z,102334.06
2022-11-10T10:46:16.125Z,102342.59
2022-11-10T10:51:37.781Z,102348.16
2022-11-10T10:57:05.229Z,102361.78
2022-11-10T11:02:35.140Z,102363.91
2022-11-10T11:08:04.887Z,102376.69
2022-11-10T11:13:28.119Z,102367.53
2022-11-10T11:18:50.832Z,102367.72
2022-11-10T11:24:41.592Z,102351.97
2022-11-10T11:30:17.607Z,102364.78
2022-11-10T11:35:50.574Z,102364.78
2022-11-10T11:41:12.206Z,102379.69
2022-11-10T11:46:49.337Z,102384.16
2022-11-10T11:52:22.376Z,102391.59
2022-11-10T11:57:53.575Z,102395.25
2022-11-10T12:03:44.352Z,102405.47
2022-11-10T12:09:22.546Z,102415.50
2022-11-10T12:15:20.010Z,102414.66
2022-11-10T12:20:44.681Z,102419.31
2022-11-10T12:26:29.359Z,102423.16
2022-11-10T12:31:55.275Z,102420.38
2022-11-10T12:37:28.451Z,102427.84
2022-11-10T12:42:59.811Z,102416.75
2022-11-10T12:48:22.923Z,102430.63
2022-11-10T12:53:47.065Z,102430.63
2022-11-10T12:59:20.705Z,102432.34
2022-11-10T13:04:42.564Z,102430.81
2022-11-10T13:10:19.281Z,102438.06
2022-11-10T13:15:47.446Z,102434.44
2022-11-10T13:21:09.191Z,102422.72
2022-11-10T13:26:39.859Z,102430.81
2022-11-10T13:32:07.495Z,102439.34
2022-11-10T13:37:35.019Z,102444.00
2022-11-10T13:42:59.453Z,102442.31
2022-11-10T13:48:28.871Z,102431.22
2022-11-10T13:54:11.637Z,102420.81
2022-11-10T13:59:45.375Z,102420.13
2022-11-10T14:05:09.605Z,102414.78
2022-11-10T14:10:56.187Z,102430.34
2022-11-10T14:16:23.360Z,102434.19
2022-11-10T14:21:59.460Z,102444.19
2022-11-10T14:27:27.628Z,102442.72
2022-11-10T14:33:06.993Z,102436.09
2022-11-10T14:38:34.038Z,102422.66
2022-11-10T14:44:12.948Z,102419.06
2022-11-10T14:49:34.701Z,102410.94
2022-11-10T14:54:56.606Z,102419.25
2022-11-10T15:00:25.257Z,102430.53
2022-11-10T15:05:48.480Z,102444.41
2022-11-10T15:11:40.610Z,102452.69
2022-11-10T15:17:04.195Z,102459.72
2022-11-10T15:22:35.739Z,102463.13
2022-11-10T15:28:04.351Z,102470.78
2022-11-10T15:33:30.100Z,102481.03
2022-11-10T15:39:28.253Z,102480.38
2022-11-10T15:44:50.010Z,102485.91
2022-11-10T15:50:12.568Z,102493.34
2022-11-10T15:55:35.634Z,102497.22
2022-11-10T16:00:57.321Z,102491.69
2022-11-10T16:06:19.060Z,102501.03
2022-11-10T16:11:44.756Z,102510.41
2022-11-10T16:17:09.159Z,102519.78
2022-11-10T16:22:30.824Z,102505.94
2022-11-10T16:27:52.568Z,102505.28
2022-11-10T16:33:16.605Z,102506.97
2022-11-10T16:38:38.322Z,102516.34
2022-11-10T16:44:00.023Z,102519.13
2022-11-10T16:49:35.782Z,102530.41
2022-11-10T16:54:57.437Z,102540.63
2022-11-10T17:00:19.862Z,102547.88
2022-11-10T17:05:41.771Z,102542.72
2022-11-10T17:11:03.474Z,102562.13
2022-11-10T17:16:38.936Z,102573.88
2022-11-10T17:22:00.626Z,102578.75
2022-11-10T17:27:22.360Z,102591.34
2022-11-10T17:33:04.086Z,102586.00
2022-11-10T17:38:28.384Z,102583.22
2022-11-10T17:43:50.097Z,102573.88
2022-11-10T17:49:11.916Z,102575.56
2022-11-10T17:54:34.051Z,102582.00
2022-11-10T17:59:56.148Z,102590.09
2022-11-10T18:05:18.789Z,102591.78
2022-11-10T18:10:47.802Z,102604.16
2022-11-10T18:16:11.933Z,102613.91
2022-11-10T18:21:33.600Z,102614.94
2022-11-10T18:26:55.339Z,102610.41
2022-11-10T18:32:16.978Z,102614.56
2022-11-10T18:37:39.378Z,102619.72
2022-11-10T18:43:06.116Z,102619.06
2022-11-10T18:48:32.147Z,102613.72
2022-11-10T18:53:58.617Z,102603.47
2022-11-10T18:59:20.386Z,102609.84
2022-11-10T19:04:42.097Z,102610.69
2022-11-10T19:10:04.253Z,102613.22
2022-11-10T19:15:26.017Z,102613.81
2022-11-10T19:20:47.667Z,102613.63
2022-11-10T19:26:10.836Z,102608.03
2022-11-10T19:31:32.546Z,102618.50
2022-11-10T19:36:54.512Z,102619.56
2022-11-10T19:42:16.262Z,102630.88
2022-11-10T19:47:37.974Z,102636.59
2022-11-10T19:52:59.730Z,102640.25
2022-11-10T19:58:21.458Z,102639.19
2022-11-10T20:03:43.652Z,102660.34
2022-11-10T20:09:05.764Z,102664.69
2022-11-10T20:14:28.001Z,102670.06
2022-11-10T20:19:49.718Z,102671.81
2022-11-10T20:25:11.440Z,102668.00
2022-11-10T20:30:35.076Z,102671.88
2022-11-10T20:36:02.773Z,102677.44
2022-11-10T20:41:27.368Z,102694.53
2022-11-10T20:46:54.555Z,102711.19
2022-11-10T20:52:17.023Z,102707.13
2022-11-10T20:57:38.696Z,102700.28
2022-11-10T21:03:00.328Z,102687.25
2022-11-10T21:08:22.370Z,102687.00
2022-11-10T21:13:44.009Z,102676.97
2022-11-10T21:19:06.519Z,102698.06
2022-11-10T21:24:29.287Z,102695.75
2022-11-10T21:29:50.984Z,102691.66
2022-11-10T21:35:12.629Z,102697.41
2022-11-10T21:40:34.421Z,102698.88
2022-11-10T21:45:57.666Z,102698.25
2022-11-10T21:51:22.359Z,102707.19
2022-11-10T21:56:44.035Z,102712.72
2022-11-10T22:02:06.620Z,102719.06
2022-11-10T22:07:28.381Z,102728.84
2022-11-10T22:13:08.519Z,102732.47
2022-11-10T22:18:40.445Z,102729.22
2022-11-10T22:24:21.133Z,102742.88
2022-11-10T22:29:42.839Z,102751.81
2022-11-10T22:35:04.817Z,102773.53
2022-11-10T22:40:45.145Z,102784.81
2022-11-10T22:46:06.782Z,102786.28
2022-11-10T22:51:30.578Z,102795.03
2022-11-10T22:56:52.554Z,102799.91
2022-11-10T23:02:14.156Z,102802.03
2022-11-10T23:07:35.845Z,102798.59
2022-11-10T23:12:57.644Z,102809.25
2022-11-10T23:18:19.388Z,102834.41
2022-11-10T23:23:42.591Z,102837.34
2022-11-10T23:29:04.248Z,102844.16
2022-11-10T23:34:25.925Z,102832.41
2022-11-10T23:39:47.567Z,102832.63
2022-11-10T23:45:09.828Z,102817.22
2022-11-10T23:50:31.522Z,102830.47
2022-11-10T23:55:57.791Z,102812.09
